Time;durP1;ratioP1;P1;durP2;ratioP2;P2;SDS_P1;SDS_P2;PMS_P1;PMS_P2;Temp;Humidity;BMP_temperature;BMP_pressure;BME280_temperature;BME280_humidity;BME280_pressure;Samples;Min_cycle;Max_cycle;Signal;HPM_P1;HPM_P2
2022/12/26 00:02:04;;;;;;;6.95;0.80;;;;;;;;;;6060461;23;20449;-65
2022/12/26 00:04:32;;;;;;;9.50;0.87;;;;;;;;;;6043369;23;20437;-65
2022/12/26 00:07:19;;;;;;;9.30;0.70;;;;;;;;;;6071728;23;20046;-65
2022/12/26 00:09:48;;;;;;;5.20;0.47;;;;;;;;;;6062558;23;20631;-65
2022/12/26 00:12:15;;;;;;;7.05;0.70;;;;;;;;;;6041670;23;20109;-65
2022/12/26 00:14:43;;;;;;;7.20;0.73;;;;;;;;;;6046238;23;20657;-65
2022/12/26 00:17:11;;;;;;;6.70;0.80;;;;;;;;;;6050029;23;20022;-64
2022/12/26 00:19:38;;;;;;;8.45;0.43;;;;;;;;;;6076993;23;20054;-64
2022/12/26 00:22:06;;;;;;;8.85;1.20;;;;;;;;;;6041234;23;20327;-65
2022/12/26 00:24:36;;;;;;;7.95;0.70;;;;;;;;;;6066634;23;20114;-64
2022/12/26 00:27:05;;;;;;;15.40;1.20;;;;;;;;;;6065658;23;20028;-65
2022/12/26 00:29:33;;;;;;;11.10;1.53;;;;;;;;;;6060602;23;20057;-65
2022/12/26 00:32:00;;;;;;;8.00;0.80;;;;;;;;;;6066378;23;20060;-65
2022/12/26 00:34:28;;;;;;;9.60;0.98;;;;;;;;;;6068869;23;20026;-64
2022/12/26 00:36:58;;;;;;;7.05;0.60;;;;;;;;;;6067667;23;20022;-65
2022/12/26 00:39:25;;;;;;;8.88;1.13;;;;;;;;;;6066122;23;20022;-65
2022/12/26 00:41:53;;;;;;;6.03;0.77;;;;;;;;;;6071222;23;20349;-64
2022/12/26 00:44:22;;;;;;;9.52;0.98;;;;;;;;;;6068797;23;20517;-64
2022/12/26 00:46:50;;;;;;;6.95;0.82;;;;;;;;;;6070142;23;20481;-64
2022/12/26 00:49:17;;;;;;;11.63;0.88;;;;;;;;;;6063407;23;20305;-64
2022/12/26 00:51:48;;;;;;;10.02;1.20;;;;;;;;;;6062967;23;20667;-65
2022/12/26 00:54:16;;;;;;;7.97;0.60;;;;;;;;;;6043172;23;20022;-64
2022/12/26 00:56:44;;;;;;;8.70;0.65;;;;;;;;;;6063627;23;20022;-64
2022/12/26 00:59:12;;;;;;;6.63;1.17;;;;;;;;;;6069568;23;20042;-64
2022/12/26 01:01:41;;;;;;;5.38;0.73;;;;;;;;;;6065264;23;20042;-65
2022/12/26 01:04:09;;;;;;;6.95;0.80;;;;;;;;;;6069340;23;20449;-64
2022/12/26 01:06:37;;;;;;;6.80;0.60;;;;;;;;;;6069813;23;20616;-65
2022/12/26 01:09:04;;;;;;;4.97;0.80;;;;;;;;;;6061243;23;20014;-64
2022/12/26 01:11:41;;;;;;;7.80;0.63;;;;;;;;;;6076927;23;20072;-64
2022/12/26 01:14:10;;;;;;;6.18;1.00;;;;;;;;;;6062702;23;20076;-64
2022/12/26 01:16:38;;;;;;;4.75;0.50;;;;;;;;;;6064529;23;20018;-64
2022/12/26 01:19:07;;;;;;;5.87;0.60;;;;;;;;;;6072552;23;20362;-61
2022/12/26 01:21:35;;;;;;;7.47;0.80;;;;;;;;;;6067899;23;20038;-60
2022/12/26 01:24:03;;;;;;;5.72;0.65;;;;;;;;;;6068346;23;20399;-65
2022/12/26 01:26:31;;;;;;;8.05;0.80;;;;;;;;;;6057550;23;20457;-60
2022/12/26 01:28:59;;;;;;;4.20;1.02;;;;;;;;;;6069987;23;20081;-60
2022/12/26 01:31:26;;;;;;;5.40;0.70;;;;;;;;;;6062559;23;20015;-61
2022/12/26 01:33:54;;;;;;;11.95;0.40;;;;;;;;;;6073231;23;20025;-60
2022/12/26 01:36:23;;;;;;;5.75;0.65;;;;;;;;;;6062232;23;20149;-61
2022/12/26 01:38:51;;;;;;;4.28;0.60;;;;;;;;;;6070491;23;20529;-64
2022/12/26 01:41:19;;;;;;;7.70;1.15;;;;;;;;;;6037307;23;20050;-65
2022/12/26 01:43:53;;;;;;;4.87;0.60;;;;;;;;;;6071603;23;20414;-64
2022/12/26 01:46:22;;;;;;;5.20;0.45;;;;;;;;;;6068707;23;20022;-64
2022/12/26 01:48:51;;;;;;;5.18;0.30;;;;;;;;;;6037927;23;20398;-60
2022/12/26 01:51:20;;;;;;;8.07;0.60;;;;;;;;;;6067743;23;20078;-64
2022/12/26 01:53:50;;;;;;;4.47;0.30;;;;;;;;;;6064457;23;20069;-63
2022/12/26 01:56:20;;;;;;;5.87;0.50;;;;;;;;;;6071034;23;20050;-64
2022/12/26 01:58:50;;;;;;;3.03;0.40;;;;;;;;;;6036771;23;20458;-63
2022/12/26 02:01:19;;;;;;;7.53;0.70;;;;;;;;;;6069683;23;20062;-64
2022/12/26 02:06:37;;;;;;;4.07;0.50;;;;;;;;;;6069241;23;20022;-64
2022/12/26 02:09:06;;;;;;;2.97;0.50;;;;;;;;;;6067964;23;20073;-64
2022/12/26 02:11:36;;;;;;;4.45;0.40;;;;;;;;;;6070928;23;20077;-63
2022/12/26 02:14:05;;;;;;;3.38;0.43;;;;;;;;;;6062825;23;20109;-64
2022/12/26 02:16:37;;;;;;;4.50;0.40;;;;;;;;;;6070577;23;20026;-64
2022/12/26 02:19:07;;;;;;;6.57;0.73;;;;;;;;;;6070394;23;20023;-64
2022/12/26 02:21:47;;;;;;;4.37;0.70;;;;;;;;;;6070919;23;20082;-64
2022/12/26 02:24:30;;;;;;;5.18;0.40;;;;;;;;;;6068373;23;20203;-63
2022/12/26 02:27:10;;;;;;;5.38;0.40;;;;;;;;;;6059492;23;20019;-64
2022/12/26 02:29:55;;;;;;;5.20;0.70;;;;;;;;;;6073063;23;20018;-64
2022/12/26 02:32:29;;;;;;;3.90;0.68;;;;;;;;;;6075423;23;20019;-64
2022/12/26 02:35:00;;;;;;;3.83;0.80;;;;;;;;;;6049427;23;20046;-63
2022/12/26 02:37:34;;;;;;;9.88;1.02;;;;;;;;;;6075759;23;20026;-58
2022/12/26 02:40:12;;;;;;;7.70;0.88;;;;;;;;;;6057315;23;20042;-64
2022/12/26 02:42:47;;;;;;;6.05;0.60;;;;;;;;;;6070970;23;20014;-64
2022/12/26 02:48:12;;;;;;;2.53;0.50;;;;;;;;;;6071448;23;20106;-63
2022/12/26 03:13:37;;;;;;;4.97;0.77;;;;;;;;;;6036359;23;20660;-63
2022/12/26 03:18:55;;;;;;;7.55;1.08;;;;;;;;;;6062726;23;20022;-63
2022/12/26 03:21:30;;;;;;;3.53;0.65;;;;;;;;;;6061015;23;20464;-63
2022/12/26 03:23:57;;;;;;;6.43;0.80;;;;;;;;;;6071797;23;20014;-64
2022/12/26 03:26:41;;;;;;;6.10;0.75;;;;;;;;;;6062574;23;20046;-63
2022/12/26 03:31:55;;;;;;;2.13;0.40;;;;;;;;;;6040355;23;20014;-63
2022/12/26 03:34:22;;;;;;;2.00;0.35;;;;;;;;;;6069913;23;20065;-63
2022/12/26 03:37:01;;;;;;;4.63;0.50;;;;;;;;;;6070710;23;20553;-63
2022/12/26 04:44:10;;;;;;;1.70;0.20;;;;;;;;;;6039889;23;20018;-62
2022/12/26 04:46:40;;;;;;;1.20;0.20;;;;;;;;;;6075163;23;20019;-63
2022/12/26 04:51:55;;;;;;;3.23;0.20;;;;;;;;;;6072166;23;20113;-63
2022/12/26 04:54:23;;;;;;;1.35;0.20;;;;;;;;;;6069348;23;20449;-63
2022/12/26 04:56:51;;;;;;;1.40;0.20;;;;;;;;;;6046599;23;20905;-63
2022/12/26 04:59:20;;;;;;;1.27;0.20;;;;;;;;;;6073152;23;20136;-63
2022/12/26 05:10:07;;;;;;;2.47;0.65;;;;;;;;;;6072771;23;20014;-63
2022/12/26 05:12:35;;;;;;;2.47;0.32;;;;;;;;;;6060756;23;20327;-63
2022/12/26 05:15:04;;;;;;;4.63;0.30;;;;;;;;;;6068986;23;20019;-63
2022/12/26 05:28:49;;;;;;;1.40;0.20;;;;;;;;;;6064857;23;20466;-63
2022/12/26 05:31:18;;;;;;;1.43;0.20;;;;;;;;;;6065900;23;20026;-63
2022/12/26 05:36:31;;;;;;;1.40;0.10;;;;;;;;;;6065311;23;20442;-62
2022/12/26 05:39:00;;;;;;;0.90;0.10;;;;;;;;;;6072846;23;20065;-63
2022/12/26 05:41:28;;;;;;;2.45;0.20;;;;;;;;;;6062572;23;20208;-58
2022/12/26 05:43:59;;;;;;;1.90;0.20;;;;;;;;;;6065032;23;20029;-62
2022/12/26 05:46:28;;;;;;;1.38;0.20;;;;;;;;;;6047308;23;20045;-63
2022/12/26 05:48:56;;;;;;;3.70;0.20;;;;;;;;;;6064036;23;20026;-62
2022/12/26 05:51:24;;;;;;;3.30;0.22;;;;;;;;;;6069234;23;20085;-62
2022/12/26 05:53:52;;;;;;;3.17;0.20;;;;;;;;;;6068969;23;20672;-62
2022/12/26 05:56:19;;;;;;;1.27;0.20;;;;;;;;;;6061191;23;20026;-63
2022/12/26 05:58:47;;;;;;;3.72;0.20;;;;;;;;;;6071479;23;20446;-62
2022/12/26 06:01:16;;;;;;;1.10;0.15;;;;;;;;;;6061763;23;20364;-62
2022/12/26 06:03:48;;;;;;;1.30;0.20;;;;;;;;;;6072654;23;20105;-62
2022/12/26 06:06:15;;;;;;;1.70;0.28;;;;;;;;;;6069080;23;20015;-62
2022/12/26 06:08:43;;;;;;;1.20;0.10;;;;;;;;;;6063044;23;20465;-62
2022/12/26 06:11:12;;;;;;;2.38;0.20;;;;;;;;;;6045675;23;20089;-63
2022/12/26 06:13:40;;;;;;;1.30;0.20;;;;;;;;;;6062570;23;21030;-63
2022/12/26 06:16:09;;;;;;;2.35;0.30;;;;;;;;;;6069855;23;20061;-58
2022/12/26 06:18:37;;;;;;;3.90;0.30;;;;;;;;;;6070329;23;20026;-62
2022/12/26 06:21:07;;;;;;;1.83;0.30;;;;;;;;;;6062113;23;20236;-62
2022/12/26 06:23:35;;;;;;;1.38;0.25;;;;;;;;;;6069183;23;20105;-63
2022/12/26 06:26:03;;;;;;;3.03;0.20;;;;;;;;;;6062501;23;20117;-62
2022/12/26 06:28:31;;;;;;;1.90;0.20;;;;;;;;;;6073653;23;20123;-62
2022/12/26 06:31:02;;;;;;;2.58;0.30;;;;;;;;;;6061671;23;20014;-62
2022/12/26 06:33:31;;;;;;;1.20;0.17;;;;;;;;;;6067065;23;20018;-62
2022/12/26 06:36:03;;;;;;;1.27;0.20;;;;;;;;;;6038948;23;20022;-62
2022/12/26 06:38:34;;;;;;;3.10;0.20;;;;;;;;;;6071795;23;20290;-62
2022/12/26 06:41:04;;;;;;;8.45;0.28;;;;;;;;;;6062450;23;20351;-62
2022/12/26 06:43:32;;;;;;;1.27;0.10;;;;;;;;;;6041870;23;20014;-62
2022/12/26 06:46:00;;;;;;;2.63;0.30;;;;;;;;;;6058735;23;20069;-62
2022/12/26 06:48:28;;;;;;;2.75;0.20;;;;;;;;;;6069830;23;20070;-59
2022/12/26 06:50:56;;;;;;;2.15;0.20;;;;;;;;;;6037518;23;20073;-62
2022/12/26 06:53:24;;;;;;;1.50;0.17;;;;;;;;;;6065307;23;20454;-62
2022/12/26 06:55:53;;;;;;;2.55;0.20;;;;;;;;;;6070737;23;20019;-62
2022/12/26 06:58:21;;;;;;;4.03;0.20;;;;;;;;;;6060957;23;20050;-62
2022/12/26 07:00:49;;;;;;;3.85;0.40;;;;;;;;;;6068663;23;20454;-62
2022/12/26 07:03:17;;;;;;;2.75;0.20;;;;;;;;;;6063412;23;20517;-62
2022/12/26 07:05:44;;;;;;;3.72;0.20;;;;;;;;;;6070057;23;20018;-61
2022/12/26 07:08:12;;;;;;;2.47;0.20;;;;;;;;;;6048423;23;20466;-62
2022/12/26 07:10:39;;;;;;;3.87;0.30;;;;;;;;;;6063090;23;20419;-62
2022/12/26 07:13:08;;;;;;;3.47;0.20;;;;;;;;;;6073643;23;20015;-62
2022/12/26 07:15:36;;;;;;;1.67;0.30;;;;;;;;;;6060079;23;20050;-62
2022/12/26 07:18:04;;;;;;;2.45;0.20;;;;;;;;;;6069848;23;20377;-62
2022/12/26 07:20:31;;;;;;;1.50;0.20;;;;;;;;;;6070992;23;20021;-59
2022/12/26 07:22:59;;;;;;;1.77;0.30;;;;;;;;;;6022067;23;20069;-59
2022/12/26 07:25:27;;;;;;;1.60;0.20;;;;;;;;;;6071844;23;20069;-62
2022/12/26 07:27:54;;;;;;;2.35;0.30;;;;;;;;;;6064594;23;20014;-62
2022/12/26 07:30:28;;;;;;;2.58;0.20;;;;;;;;;;6072681;23;20015;-62
2022/12/26 07:32:56;;;;;;;2.22;0.20;;;;;;;;;;6073748;23;20061;-62
2022/12/26 07:35:23;;;;;;;2.53;0.30;;;;;;;;;;6062707;23;20510;-62
2022/12/26 07:37:52;;;;;;;1.67;0.20;;;;;;;;;;6068901;23;20449;-62
2022/12/26 07:40:19;;;;;;;3.28;0.20;;;;;;;;;;6057556;23;20029;-61
2022/12/26 07:42:47;;;;;;;1.35;0.20;;;;;;;;;;6072315;23;20018;-61
2022/12/26 07:45:15;;;;;;;5.22;0.32;;;;;;;;;;6069270;23;20479;-62
2022/12/26 07:47:44;;;;;;;3.30;0.43;;;;;;;;;;6064999;23;20093;-62
2022/12/26 07:50:11;;;;;;;2.38;0.17;;;;;;;;;;6073472;23;20046;-62
2022/12/26 07:52:39;;;;;;;2.75;0.20;;;;;;;;;;6067457;23;20480;-62
2022/12/26 07:55:07;;;;;;;5.18;0.30;;;;;;;;;;6064337;23;20097;-61
2022/12/26 07:57:34;;;;;;;3.28;0.20;;;;;;;;;;6073085;23;20529;-61
2022/12/26 08:00:15;;;;;;;1.40;0.20;;;;;;;;;;6071527;23;20038;-62
2022/12/26 08:02:44;;;;;;;1.92;0.30;;;;;;;;;;6062805;23;20015;-62
2022/12/26 08:05:12;;;;;;;4.90;0.30;;;;;;;;;;6077730;23;20014;-61
2022/12/26 08:07:40;;;;;;;3.20;0.35;;;;;;;;;;6062705;23;20018;-62
2022/12/26 08:10:10;;;;;;;2.83;0.20;;;;;;;;;;6070196;23;20061;-61
2022/12/26 08:12:38;;;;;;;2.17;0.20;;;;;;;;;;6070827;23;20018;-61
2022/12/26 08:15:06;;;;;;;3.58;0.30;;;;;;;;;;6037662;23;20015;-62
2022/12/26 08:17:34;;;;;;;4.78;0.22;;;;;;;;;;6069394;23;20046;-61
2022/12/26 08:20:03;;;;;;;3.58;0.30;;;;;;;;;;6069700;23;20042;-61
2022/12/26 08:22:30;;;;;;;5.97;0.30;;;;;;;;;;6062200;23;20292;-61
2022/12/26 08:24:58;;;;;;;4.63;0.27;;;;;;;;;;6072305;23;20342;-62
2022/12/26 08:27:26;;;;;;;2.20;0.15;;;;;;;;;;6062988;23;20128;-62
2022/12/26 08:29:53;;;;;;;5.35;0.25;;;;;;;;;;6070923;23;20441;-62
2022/12/26 08:32:21;;;;;;;3.03;0.30;;;;;;;;;;6062193;23;20025;-62
2022/12/26 08:34:48;;;;;;;6.68;0.35;;;;;;;;;;6071586;23;20050;-62
2022/12/26 08:37:17;;;;;;;7.67;0.50;;;;;;;;;;6066645;23;20510;-61
2022/12/26 08:39:45;;;;;;;5.63;0.52;;;;;;;;;;6064792;23;20014;-61
2022/12/26 08:42:13;;;;;;;5.10;0.70;;;;;;;;;;6047169;23;20018;-62
2022/12/26 08:44:40;;;;;;;5.35;0.55;;;;;;;;;;6058892;23;20689;-62
2022/12/26 08:47:12;;;;;;;3.92;0.60;;;;;;;;;;6069772;23;20046;-62
2022/12/26 08:49:40;;;;;;;3.23;0.37;;;;;;;;;;6071503;23;20038;-62
2022/12/26 08:52:08;;;;;;;5.30;0.40;;;;;;;;;;6063374;23;20553;-62
2022/12/26 08:54:37;;;;;;;5.93;0.40;;;;;;;;;;6062624;23;20074;-62
2022/12/26 08:57:05;;;;;;;6.28;0.45;;;;;;;;;;6067902;23;20508;-61
2022/12/26 08:59:32;;;;;;;4.63;0.50;;;;;;;;;;6063393;23;20030;-58
2022/12/26 09:02:00;;;;;;;5.23;0.50;;;;;;;;;;6073923;23;20060;-59
2022/12/26 09:04:28;;;;;;;5.72;0.60;;;;;;;;;;6066190;23;20074;-54
2022/12/26 09:06:59;;;;;;;6.38;0.60;;;;;;;;;;6070740;23;20042;-59
2022/12/26 09:09:27;;;;;;;4.82;0.40;;;;;;;;;;6072048;23;20022;-59
2022/12/26 09:11:56;;;;;;;3.22;0.47;;;;;;;;;;6060435;23;20072;-59
2022/12/26 09:14:24;;;;;;;5.47;0.43;;;;;;;;;;6072751;23;20068;-59
2022/12/26 09:16:53;;;;;;;2.72;0.30;;;;;;;;;;6062681;23;20588;-59
2022/12/26 09:19:21;;;;;;;6.68;0.43;;;;;;;;;;6065538;23;20057;-59
2022/12/26 09:22:49;;;;;;;5.22;0.50;;;;;;;;;;6073571;23;20019;-58
2022/12/26 09:24:37;;;;;;;5.45;0.70;;;;;;;;;;6062924;23;20050;-59
2022/12/26 09:27:11;;;;;;;5.03;0.70;;;;;;;;;;6072466;23;20042;-59
2022/12/26 09:29:39;;;;;;;4.90;0.88;;;;;;;;;;6073231;23;20354;-59
2022/12/26 09:32:08;;;;;;;7.13;0.82;;;;;;;;;;6061559;23;20082;-59
2022/12/26 09:34:35;;;;;;;5.93;0.95;;;;;;;;;;6068891;23;20508;-59
2022/12/26 09:37:03;;;;;;;3.58;0.68;;;;;;;;;;6068189;23;20380;-59
2022/12/26 09:39:30;;;;;;;7.03;1.00;;;;;;;;;;6064137;23;20038;-58
2022/12/26 09:42:01;;;;;;;5.18;0.82;;;;;;;;;;6072942;23;20402;-59
2022/12/26 09:44:42;;;;;;;8.88;0.82;;;;;;;;;;6060768;23;20355;-59
2022/12/26 09:47:20;;;;;;;7.85;1.00;;;;;;;;;;6066338;23;20042;-59
2022/12/26 09:49:53;;;;;;;5.22;1.00;;;;;;;;;;6070688;23;20026;-59
2022/12/26 09:52:24;;;;;;;9.73;0.90;;;;;;;;;;6062863;23;20030;-59
2022/12/26 09:54:53;;;;;;;5.35;0.93;;;;;;;;;;6066836;23;20417;-58
2022/12/26 09:57:23;;;;;;;13.82;0.90;;;;;;;;;;6064109;23;20022;-59
2022/12/26 09:59:55;;;;;;;9.52;1.00;;;;;;;;;;6070044;23;20042;-58
2022/12/26 10:02:24;;;;;;;5.97;0.60;;;;;;;;;;6063667;23;20022;-59
2022/12/26 10:04:52;;;;;;;6.57;1.07;;;;;;;;;;6065498;23;20034;-59
2022/12/26 10:07:22;;;;;;;6.47;0.75;;;;;;;;;;6060962;23;20533;-58
2022/12/26 10:10:01;;;;;;;8.50;1.10;;;;;;;;;;6069572;23;20626;-57
2022/12/26 10:12:40;;;;;;;10.13;1.50;;;;;;;;;;6060994;23;20332;-56
2022/12/26 10:15:15;;;;;;;12.27;1.25;;;;;;;;;;6064058;23;20038;-59
2022/12/26 10:17:46;;;;;;;8.67;1.07;;;;;;;;;;6067928;23;20097;-59
2022/12/26 10:20:18;;;;;;;6.50;0.80;;;;;;;;;;6069233;23;20023;-58
2022/12/26 10:23:04;;;;;;;6.05;0.70;;;;;;;;;;6049065;23;20171;-59
2022/12/26 10:25:36;;;;;;;9.23;1.30;;;;;;;;;;6044099;23;20036;-58
2022/12/26 10:28:10;;;;;;;9.35;1.33;;;;;;;;;;6070177;23;20034;-59
2022/12/26 10:30:40;;;;;;;8.00;1.00;;;;;;;;;;6061874;23;20018;-59
2022/12/26 10:33:11;;;;;;;7.00;1.00;;;;;;;;;;6068436;23;20049;-59
2022/12/26 10:35:41;;;;;;;8.48;0.70;;;;;;;;;;6062347;23;20105;-58
2022/12/26 10:38:12;;;;;;;4.32;1.00;;;;;;;;;;6067442;23;20022;-58
2022/12/26 10:40:46;;;;;;;6.85;0.88;;;;;;;;;;6071528;23;20015;-59
2022/12/26 10:43:20;;;;;;;6.50;0.90;;;;;;;;;;6071049;23;20022;-59
2022/12/26 10:45:51;;;;;;;7.15;0.70;;;;;;;;;;6063617;23;20046;-59
2022/12/26 10:48:19;;;;;;;5.78;1.02;;;;;;;;;;6071964;23;20524;-59
2022/12/26 10:50:48;;;;;;;8.45;1.67;;;;;;;;;;6063693;23;20452;-59
2022/12/26 10:53:16;;;;;;;7.40;0.95;;;;;;;;;;6069461;23;20916;-59
2022/12/26 10:55:44;;;;;;;6.80;1.07;;;;;;;;;;6074370;23;20022;-59
2022/12/26 10:58:15;;;;;;;5.63;0.70;;;;;;;;;;6064600;23;20022;-60
2022/12/26 11:00:43;;;;;;;6.28;0.70;;;;;;;;;;6071816;23;20015;-59
2022/12/26 11:03:14;;;;;;;6.35;0.68;;;;;;;;;;6063893;23;20034;-59
2022/12/26 11:05:43;;;;;;;7.57;0.60;;;;;;;;;;6068725;23;20217;-59
2022/12/26 11:08:36;;;;;;;6.60;0.70;;;;;;;;;;6074178;23;20022;-59
2022/12/26 11:11:13;;;;;;;6.63;0.73;;;;;;;;;;6072203;23;20350;-59
2022/12/26 11:13:46;;;;;;;8.05;1.63;;;;;;;;;;6064305;23;20851;-59
2022/12/26 11:16:23;;;;;;;3.72;0.70;;;;;;;;;;6070836;23;20097;-59
2022/12/26 11:18:52;;;;;;;6.15;0.80;;;;;;;;;;6046647;23;20033;-58
2022/12/26 11:21:22;;;;;;;5.13;0.97;;;;;;;;;;6063111;23;20419;-59
2022/12/26 11:23:51;;;;;;;6.45;0.60;;;;;;;;;;6044315;23;20073;-59
2022/12/26 11:26:20;;;;;;;5.40;0.98;;;;;;;;;;6064691;23;20117;-59
2022/12/26 11:28:48;;;;;;;10.75;0.93;;;;;;;;;;6061306;23;20431;-59
2022/12/26 11:31:20;;;;;;;6.88;0.75;;;;;;;;;;6072586;23;20015;-59
2022/12/26 11:33:48;;;;;;;7.77;0.90;;;;;;;;;;6061832;23;20022;-59
2022/12/26 11:36:20;;;;;;;4.07;0.50;;;;;;;;;;6069644;23;20490;-59
2022/12/26 11:38:50;;;;;;;9.88;1.02;;;;;;;;;;6045674;23;20474;-59
2022/12/26 11:41:35;;;;;;;9.35;0.90;;;;;;;;;;6064610;23;20026;-59
2022/12/26 11:44:05;;;;;;;7.78;1.02;;;;;;;;;;6063333;23;20484;-59
2022/12/26 11:46:36;;;;;;;9.10;0.93;;;;;;;;;;6071246;23;20053;-59
2022/12/26 11:49:04;;;;;;;7.72;1.05;;;;;;;;;;6062716;23;20649;-59
2022/12/26 11:51:38;;;;;;;8.18;1.00;;;;;;;;;;6068710;23;20050;-59
2022/12/26 11:54:18;;;;;;;7.57;1.15;;;;;;;;;;6069281;23;20062;-59
2022/12/26 11:56:48;;;;;;;11.95;1.95;;;;;;;;;;6068362;23;20061;-59
2022/12/26 11:59:19;;;;;;;10.97;1.07;;;;;;;;;;6072289;23;20112;-59
2022/12/26 12:01:47;;;;;;;5.07;1.10;;;;;;;;;;6066555;23;20484;-59
2022/12/26 12:04:16;;;;;;;8.88;0.77;;;;;;;;;;6059035;23;20488;-59
2022/12/26 12:06:52;;;;;;;7.75;0.77;;;;;;;;;;6072859;23;20189;-59
2022/12/26 12:09:27;;;;;;;8.65;1.00;;;;;;;;;;6065770;23;20018;-57
2022/12/26 12:11:58;;;;;;;6.50;0.60;;;;;;;;;;6068489;23;20124;-58
2022/12/26 12:14:35;;;;;;;10.18;0.80;;;;;;;;;;6063339;23;20022;-60
2022/12/26 12:17:08;;;;;;;15.95;1.20;;;;;;;;;;6064325;23;20365;-58
2022/12/26 12:19:45;;;;;;;10.25;1.20;;;;;;;;;;6040863;23;20385;-61
2022/12/26 12:22:29;;;;;;;8.57;0.93;;;;;;;;;;6072719;23;20520;-61
2022/12/26 12:25:21;;;;;;;8.97;1.80;;;;;;;;;;6071867;23;20094;-61
2022/12/26 12:27:53;;;;;;;12.88;1.75;;;;;;;;;;6035265;23;20100;-60
2022/12/26 12:30:24;;;;;;;8.63;1.40;;;;;;;;;;6068157;23;20041;-61
2022/12/26 12:33:06;;;;;;;8.10;1.13;;;;;;;;;;6068827;23;20014;-61
2022/12/26 12:35:41;;;;;;;8.07;1.15;;;;;;;;;;6063560;23;20065;-61
2022/12/26 12:38:27;;;;;;;6.63;0.73;;;;;;;;;;6067479;23;20015;-58
2022/12/26 12:41:01;;;;;;;6.15;0.70;;;;;;;;;;6065033;23;20022;-61
2022/12/26 12:43:32;;;;;;;10.95;1.13;;;;;;;;;;6065880;23;20137;-55
2022/12/26 12:46:11;;;;;;;10.25;1.00;;;;;;;;;;6060200;23;20070;-58
2022/12/26 12:48:47;;;;;;;12.68;1.45;;;;;;;;;;6074644;23;20018;-58
2022/12/26 12:51:19;;;;;;;10.70;0.70;;;;;;;;;;6071543;23;20041;-58
2022/12/26 12:53:56;;;;;;;5.75;0.93;;;;;;;;;;6066031;23;20085;-59
2022/12/26 12:56:28;;;;;;;4.97;0.63;;;;;;;;;;6037471;23;20355;-58
2022/12/26 12:58:58;;;;;;;6.93;0.68;;;;;;;;;;6074080;23;20070;-58
2022/12/26 13:01:28;;;;;;;7.22;0.55;;;;;;;;;;6060421;23;20014;-58
2022/12/26 13:03:58;;;;;;;4.43;0.70;;;;;;;;;;6071881;23;20014;-58
2022/12/26 13:06:28;;;;;;;5.10;0.45;;;;;;;;;;6042483;23;20390;-58
2022/12/26 13:08:58;;;;;;;5.57;0.50;;;;;;;;;;6062518;23;20114;-58
2022/12/26 13:11:29;;;;;;;4.03;0.40;;;;;;;;;;6045838;23;20022;-59
2022/12/26 13:14:00;;;;;;;4.55;0.50;;;;;;;;;;6048364;23;20121;-61
2022/12/26 13:16:30;;;;;;;3.40;0.40;;;;;;;;;;6073336;23;20029;-61
2022/12/26 13:18:59;;;;;;;3.45;0.63;;;;;;;;;;6067672;23;20101;-59
2022/12/26 13:21:29;;;;;;;6.38;0.60;;;;;;;;;;6050371;23;20041;-60
2022/12/26 13:26:48;;;;;;;4.82;0.50;;;;;;;;;;6069807;23;20117;-58
2022/12/26 13:29:17;;;;;;;3.73;0.40;;;;;;;;;;6063845;23;20015;-58
2022/12/26 13:31:45;;;;;;;5.68;0.40;;;;;;;;;;6072075;23;20049;-58
2022/12/26 13:34:15;;;;;;;4.13;0.50;;;;;;;;;;6037279;23;20018;-58
2022/12/26 13:36:43;;;;;;;2.58;0.38;;;;;;;;;;6069163;23;20034;-58
2022/12/26 13:39:29;;;;;;;3.38;0.50;;;;;;;;;;6067284;23;20030;-59
2022/12/26 13:44:51;;;;;;;3.90;0.50;;;;;;;;;;6068423;23;20022;-58
2022/12/26 13:47:31;;;;;;;3.97;0.40;;;;;;;;;;6062406;23;20387;-58
2022/12/26 13:49:59;;;;;;;2.65;0.30;;;;;;;;;;6071485;23;20041;-58
2022/12/26 13:52:32;;;;;;;4.57;0.30;;;;;;;;;;6065136;23;20022;-60
2022/12/26 13:55:29;;;;;;;3.47;0.40;;;;;;;;;;6063241;23;20097;-60
2022/12/26 13:58:19;;;;;;;6.28;0.30;;;;;;;;;;6063859;23;20518;-61
2022/12/26 14:00:48;;;;;;;5.35;0.50;;;;;;;;;;6069006;23;20018;-61
2022/12/26 14:03:31;;;;;;;3.35;0.30;;;;;;;;;;6061762;23;20022;-60
2022/12/26 14:06:15;;;;;;;3.58;0.40;;;;;;;;;;6067537;23;20458;-61
2022/12/26 14:08:48;;;;;;;3.90;0.43;;;;;;;;;;6062043;23;20413;-61
2022/12/26 14:11:29;;;;;;;5.28;0.93;;;;;;;;;;6072653;23;20014;-61
2022/12/26 14:14:03;;;;;;;2.92;0.40;;;;;;;;;;6061407;23;20015;-60
2022/12/26 14:16:35;;;;;;;2.85;0.50;;;;;;;;;;6070081;23;20046;-58
2022/12/26 14:19:11;;;;;;;3.42;0.70;;;;;;;;;;6079708;23;20029;-61
2022/12/26 14:21:43;;;;;;;4.97;0.60;;;;;;;;;;6075957;23;20080;-61
2022/12/26 14:24:21;;;;;;;3.42;0.40;;;;;;;;;;6063571;23;20094;-60
2022/12/26 14:26:51;;;;;;;2.55;0.30;;;;;;;;;;6045538;23;20046;-61
2022/12/26 14:29:25;;;;;;;5.28;0.77;;;;;;;;;;6063902;23;20086;-61
2022/12/26 14:32:02;;;;;;;4.70;0.30;;;;;;;;;;6073955;23;20042;-61
2022/12/26 14:34:38;;;;;;;3.50;0.50;;;;;;;;;;6049219;23;20065;-60
2022/12/26 14:37:14;;;;;;;3.33;0.40;;;;;;;;;;6070781;23;20402;-60
2022/12/26 14:39:44;;;;;;;4.38;0.50;;;;;;;;;;6071223;23;20022;-61
2022/12/26 14:45:13;;;;;;;4.18;0.43;;;;;;;;;;6070342;23;20028;-61
2022/12/26 14:47:42;;;;;;;5.23;0.40;;;;;;;;;;6065371;23;20019;-61
2022/12/26 14:50:28;;;;;;;4.00;0.50;;;;;;;;;;6074512;23;20045;-60
2022/12/26 14:53:16;;;;;;;2.72;0.32;;;;;;;;;;6068010;23;20018;-59
2022/12/26 14:55:47;;;;;;;3.70;0.40;;;;;;;;;;6074584;23;20082;-61
2022/12/26 14:58:35;;;;;;;4.70;0.30;;;;;;;;;;6060527;23;20064;-61
2022/12/26 15:01:23;;;;;;;3.80;0.60;;;;;;;;;;6068938;23;20022;-61
2022/12/26 15:03:56;;;;;;;6.32;0.57;;;;;;;;;;6069955;23;20015;-61
2022/12/26 15:06:42;;;;;;;6.68;0.85;;;;;;;;;;6070802;23;20039;-60
2022/12/26 15:09:38;;;;;;;5.15;0.47;;;;;;;;;;6071539;23;20014;-60
2022/12/26 15:12:30;;;;;;;5.25;0.63;;;;;;;;;;6061595;23;20320;-60
2022/12/26 15:15:08;;;;;;;4.00;0.40;;;;;;;;;;6035214;23;20485;-61
2022/12/26 15:17:40;;;;;;;4.38;0.50;;;;;;;;;;6067589;23;20080;-60
2022/12/26 15:20:27;;;;;;;3.55;0.40;;;;;;;;;;6070199;23;20078;-60
2022/12/26 15:23:13;;;;;;;3.22;0.35;;;;;;;;;;6063665;23;20313;-60
2022/12/26 15:25:52;;;;;;;2.15;0.40;;;;;;;;;;6056540;23;20042;-60
2022/12/26 15:28:47;;;;;;;7.30;0.50;;;;;;;;;;6073681;23;20045;-61
2022/12/26 15:31:31;;;;;;;2.33;0.30;;;;;;;;;;6003685;23;20054;-60
2022/12/26 15:34:02;;;;;;;2.95;0.30;;;;;;;;;;6038261;23;20349;-61
2022/12/26 15:36:35;;;;;;;4.47;0.43;;;;;;;;;;6045014;23;20449;-60
2022/12/26 15:39:05;;;;;;;2.60;0.25;;;;;;;;;;6061814;23;20022;-59
2022/12/26 15:41:38;;;;;;;3.63;0.40;;;;;;;;;;6069319;23;20046;-61
2022/12/26 15:44:19;;;;;;;2.70;0.30;;;;;;;;;;6068782;23;20404;-60
2022/12/26 15:46:54;;;;;;;3.03;0.47;;;;;;;;;;6049214;23;20027;-58
2022/12/26 15:49:31;;;;;;;5.45;0.30;;;;;;;;;;6063543;23;20021;-58
2022/12/26 15:52:05;;;;;;;3.58;0.38;;;;;;;;;;6069032;23;20018;-58
2022/12/26 15:54:45;;;;;;;3.30;0.40;;;;;;;;;;6065593;23;20029;-58
2022/12/26 15:57:14;;;;;;;3.95;0.40;;;;;;;;;;6070127;23;20093;-58
2022/12/26 15:59:57;;;;;;;7.35;0.30;;;;;;;;;;6066176;23;20606;-58
2022/12/26 16:02:36;;;;;;;3.08;0.40;;;;;;;;;;6072346;23;20057;-58
2022/12/26 16:05:23;;;;;;;2.88;0.38;;;;;;;;;;6051395;23;20022;-58
2022/12/26 16:07:54;;;;;;;3.07;0.40;;;;;;;;;;6071030;23;20030;-57
2022/12/26 16:10:30;;;;;;;4.40;0.38;;;;;;;;;;6057367;23;20555;-58
2022/12/26 16:13:01;;;;;;;3.65;0.40;;;;;;;;;;6071318;23;20057;-61
2022/12/26 16:15:29;;;;;;;5.45;0.30;;;;;;;;;;6060077;23;20018;-61
2022/12/26 16:18:11;;;;;;;3.17;0.35;;;;;;;;;;6065894;23;20050;-59
2022/12/26 16:23:28;;;;;;;3.30;0.32;;;;;;;;;;6071573;23;20458;-61
2022/12/26 16:25:58;;;;;;;3.35;0.40;;;;;;;;;;6062493;23;20117;-61
2022/12/26 16:28:27;;;;;;;3.00;0.40;;;;;;;;;;6074047;23;20018;-61
2022/12/26 16:30:55;;;;;;;4.03;0.50;;;;;;;;;;6063377;23;20022;-61
2022/12/26 16:33:23;;;;;;;4.43;0.57;;;;;;;;;;6070639;23;20014;-61
2022/12/26 16:35:52;;;;;;;5.00;0.63;;;;;;;;;;6038548;23;20026;-57
2022/12/26 16:38:29;;;;;;;3.45;0.40;;;;;;;;;;6068320;23;20021;-61
2022/12/26 16:40:59;;;;;;;3.65;0.50;;;;;;;;;;6073450;23;20049;-61
2022/12/26 16:43:27;;;;;;;6.47;0.65;;;;;;;;;;6068380;23;20022;-61
2022/12/26 16:45:57;;;;;;;2.87;0.33;;;;;;;;;;6064134;23;20014;-60
2022/12/26 16:48:26;;;;;;;4.97;0.55;;;;;;;;;;6070191;23;20296;-61
2022/12/26 16:50:55;;;;;;;3.30;0.50;;;;;;;;;;6059846;23;20555;-60
2022/12/26 16:53:24;;;;;;;3.92;0.70;;;;;;;;;;6067242;23;20022;-60
2022/12/26 16:55:56;;;;;;;4.80;0.80;;;;;;;;;;6073558;23;20024;-60
2022/12/26 16:58:25;;;;;;;5.17;0.40;;;;;;;;;;6061461;23;20038;-61
2022/12/26 17:01:04;;;;;;;5.72;0.68;;;;;;;;;;6070612;23;20026;-61
2022/12/26 17:03:40;;;;;;;3.42;0.70;;;;;;;;;;6068791;23;20037;-60
2022/12/26 17:06:12;;;;;;;5.80;1.05;;;;;;;;;;6071803;23;20022;-60
2022/12/26 17:08:41;;;;;;;5.13;0.80;;;;;;;;;;6058789;23;20105;-61
2022/12/26 17:11:10;;;;;;;5.43;0.63;;;;;;;;;;6071110;23;20097;-59
2022/12/26 17:13:38;;;;;;;3.25;0.43;;;;;;;;;;6061792;23;20110;-60
2022/12/26 17:16:09;;;;;;;5.43;0.70;;;;;;;;;;6044555;23;20480;-60
2022/12/26 17:18:46;;;;;;;5.05;0.80;;;;;;;;;;6069498;23;20281;-61
2022/12/26 17:21:18;;;;;;;5.10;0.70;;;;;;;;;;6061812;23;20018;-60
2022/12/26 17:23:58;;;;;;;4.13;0.80;;;;;;;;;;6041422;23;20018;-61
2022/12/26 17:26:29;;;;;;;6.82;1.10;;;;;;;;;;6070279;23;20022;-60